Los Angeles, California
Traffic Map
Current Weather Conditions
Los Angeles, California
Clear
Clear
26°
Feels Like: 26°
Wind Chill: 26° Ceiling: Unl
Heat Index: 26° Visibility: 9mi
Dew Point: Wind: 3mph
Humidity: 35% Direction: ° ()
Pressure: 29.97in Gusts: 0mph
Raw Report DataKCQT 301847Z AUTO VRB03KT 9SM CLR 26/09 A2997 RMK AO2 SLP145 T02610094
Traffic Incident Summary
Active as of:
Severity:
Category:
InformationThere was an issue retrieving the traffic information for this location. Please try a different location or try again shortly.
Advertisements
Track Severe Weather on mobile